Terminal Aerodrome Forecast
Issued by NWS Knoxville/Tri Cities, TN

Current Version | Previous Version | Text Only | Print | Product List | Glossary On
Versions: 1 2 3 4 5 6 7 8 9 10 11 12 13 14 15 16 17 18 19 20 21 22 23 24 25 26 27 28 29 30 31 32 33 34 35 36 37 38 39 40 41 42 43 44
000
FTUS44 KMRX 301236 AAA
TAFTYS
TAF AMD
KTYS 301236Z 3013/0112 23005KT P6SM SCT050 BKN100
     FM301500 22008KT P6SM SCT050 SCT120
     FM302100 23012KT P6SM VCTS BKN050CB
     FM010200 24006KT P6SM SCT060 BKN100
     FM010900 23004KT 6SM BR FEW020 SCT150=

USA.gov is the U.S. government's official web portal to all federal, state and local government web resources and services.